Time;durP1;ratioP1;P1;durP2;ratioP2;P2;SDS_P1;SDS_P2;PMS_P1;PMS_P2;Temp;Humidity;BMP_temperature;BMP_pressure;BME280_temperature;BME280_humidity;BME280_pressure;Samples;Min_cycle;Max_cycle;Signal;HPM_P1;HPM_P2
2023/06/25 00:00:54;;;;;;;4.18;3.78;;;22.80;52.50;;;;;;5037784;28;20173;-81
2023/06/25 00:03:20;;;;;;;3.90;3.50;;;22.80;52.60;;;;;;5054679;28;20241;-82
2023/06/25 00:05:46;;;;;;;3.92;3.53;;;22.70;52.60;;;;;;5038614;28;20249;-82
2023/06/25 00:08:12;;;;;;;3.72;3.35;;;22.80;52.60;;;;;;5055549;28;20612;-82
2023/06/25 00:10:38;;;;;;;3.38;3.08;;;22.80;52.60;;;;;;5054283;28;20560;-82
2023/06/25 00:13:04;;;;;;;3.50;3.20;;;22.80;52.70;;;;;;5037488;28;20227;-82
2023/06/25 00:15:30;;;;;;;3.50;3.20;;;22.80;52.70;;;;;;5038314;28;20174;-82
2023/06/25 00:17:56;;;;;;;3.70;3.40;;;22.80;52.70;;;;;;5055347;28;20163;-82
2023/06/25 00:20:24;;;;;;;3.42;3.10;;;22.80;52.70;;;;;;5020823;28;20201;-82
2023/06/25 00:22:50;;;;;;;3.45;3.15;;;22.80;52.70;;;;;;5053967;28;20148;-82
2023/06/25 00:25:17;;;;;;;4.03;3.63;;;22.80;52.70;;;;;;5054086;28;20518;-82
2023/06/25 00:27:47;;;;;;;3.30;3.00;;;22.80;53.40;;;;;;5037088;28;20166;-82
2023/06/25 00:30:15;;;;;;;3.95;3.35;;;22.70;52.70;;;;;;5038244;28;20338;-82
2023/06/25 00:32:42;;;;;;;3.53;3.22;;;22.70;52.70;;;;;;5020843;28;20181;-82
2023/06/25 00:35:09;;;;;;;3.80;3.50;;;22.70;53.40;;;;;;5055088;28;20162;-82
2023/06/25 00:37:36;;;;;;;3.90;3.40;;;22.70;52.80;;;;;;5054869;28;20158;-82
2023/06/25 00:40:04;;;;;;;3.97;3.58;;;22.70;52.80;;;;;;5053566;28;20679;-82
2023/06/25 00:42:40;;;;;;;3.63;3.25;;;22.70;52.80;;;;;;5054823;28;20154;-82
2023/06/25 00:45:09;;;;;;;3.58;3.28;;;22.80;52.90;;;;;;5054933;28;20152;-82
2023/06/25 00:47:35;;;;;;;3.50;3.20;;;22.70;52.80;;;;;;5053737;28;20610;-82
2023/06/25 00:50:02;;;;;;;3.47;3.17;;;22.70;52.80;;;;;;5053240;28;20575;-82
2023/06/25 00:52:28;;;;;;;3.70;3.40;;;22.70;52.90;;;;;;5053571;28;20226;-82
2023/06/25 00:54:54;;;;;;;3.58;3.25;;;22.70;52.90;;;;;;5053426;28;20158;-82
2023/06/25 00:57:21;;;;;;;3.70;3.40;;;22.60;52.90;;;;;;5053395;28;20165;-82
2023/06/25 00:59:48;;;;;;;3.60;3.30;;;22.70;52.90;;;;;;5053150;28;20316;-82
2023/06/25 01:02:33;;;;;;;3.53;3.22;;;22.70;52.90;;;;;;5053321;28;20152;-82
2023/06/25 01:05:11;;;;;;;3.15;2.85;;;22.70;52.90;;;;;;5052969;28;20166;-82
2023/06/25 01:07:42;;;;;;;3.80;3.40;;;22.70;52.90;;;;;;5037455;28;20169;-82
2023/06/25 01:10:10;;;;;;;3.30;3.00;;;22.70;52.90;;;;;;5037146;28;20177;-81
2023/06/25 01:12:36;;;;;;;3.72;3.33;;;22.70;52.90;;;;;;5054021;28;20586;-82
2023/06/25 01:15:03;;;;;;;3.53;3.22;;;22.70;53.00;;;;;;5036821;28;20239;-82
2023/06/25 01:17:29;;;;;;;3.50;3.20;;;22.70;53.00;;;;;;5052914;28;20174;-82
2023/06/25 01:19:55;;;;;;;3.60;3.30;;;22.70;53.00;;;;;;5054048;28;20575;-82
2023/06/25 01:22:31;;;;;;;3.47;3.15;;;22.70;53.00;;;;;;5053169;28;20165;-82
2023/06/25 01:24:58;;;;;;;3.67;3.38;;;22.70;53.00;;;;;;5054231;28;20161;-82
2023/06/25 01:27:24;;;;;;;3.60;3.30;;;22.60;53.00;;;;;;5035976;28;20161;-82
2023/06/25 01:29:50;;;;;;;4.00;3.60;;;22.60;53.00;;;;;;5052542;28;20160;-82
2023/06/25 01:32:17;;;;;;;3.70;3.40;;;22.60;53.10;;;;;;5053903;28;20166;-82
2023/06/25 01:34:43;;;;;;;3.65;3.35;;;22.60;53.10;;;;;;5052693;28;20146;-82
2023/06/25 01:37:09;;;;;;;3.50;3.20;;;22.60;53.10;;;;;;5053038;28;20504;-82
2023/06/25 01:39:35;;;;;;;3.63;3.33;;;22.60;53.10;;;;;;5035811;28;20197;-82
2023/06/25 01:42:01;;;;;;;3.47;3.17;;;22.60;53.10;;;;;;5052767;28;20142;-82
2023/06/25 01:44:28;;;;;;;3.53;3.20;;;22.60;53.10;;;;;;5053696;28;20159;-82
2023/06/25 01:46:54;;;;;;;3.90;3.50;;;22.60;53.10;;;;;;5035639;28;20247;-82
2023/06/25 01:49:19;;;;;;;3.70;3.38;;;22.60;53.40;;;;;;5063158;28;20263;-82
2023/06/25 01:51:45;;;;;;;3.90;3.50;;;22.60;53.20;;;;;;5039075;28;20181;-82
2023/06/25 01:54:11;;;;;;;3.55;3.25;;;22.60;53.20;;;;;;5055556;28;20161;-82
2023/06/25 01:56:37;;;;;;;3.65;3.35;;;22.60;53.20;;;;;;5055755;28;20165;-82
2023/06/25 01:59:03;;;;;;;4.05;3.65;;;22.60;53.20;;;;;;5055553;28;20533;-82
2023/06/25 02:01:29;;;;;;;4.03;3.63;;;22.60;53.20;;;;;;5073601;28;20181;-82
2023/06/25 02:03:55;;;;;;;3.50;3.20;;;22.60;53.20;;;;;;5073345;28;20153;-82
2023/06/25 02:06:21;;;;;;;3.67;3.38;;;22.60;53.50;;;;;;5055600;28;20190;-82
2023/06/25 02:08:47;;;;;;;3.53;3.20;;;22.60;53.30;;;;;;5038847;28;20193;-82
2023/06/25 02:11:13;;;;;;;3.80;3.40;;;22.60;53.30;;;;;;5073583;28;20181;-82
2023/06/25 02:13:39;;;;;;;3.88;3.47;;;22.60;53.30;;;;;;5055645;28;20626;-82
2023/06/25 02:16:05;;;;;;;3.70;3.30;;;22.60;53.30;;;;;;5038727;28;20165;-82
2023/06/25 02:18:31;;;;;;;3.60;3.30;;;22.60;53.50;;;;;;5073192;28;20605;-82
2023/06/25 02:20:58;;;;;;;3.72;3.33;;;22.50;53.30;;;;;;5055638;28;20690;-82
2023/06/25 02:23:24;;;;;;;3.42;3.13;;;22.50;53.30;;;;;;5055108;28;20173;-82
2023/06/25 02:25:50;;;;;;;3.33;3.03;;;22.50;53.30;;;;;;5039105;28;20230;-82
2023/06/25 02:28:16;;;;;;;3.47;3.17;;;22.50;53.30;;;;;;5039742;28;20227;-82
2023/06/25 02:30:42;;;;;;;3.97;3.60;;;22.50;53.40;;;;;;5038473;28;20165;-82
2023/06/25 02:33:08;;;;;;;3.50;3.20;;;22.50;53.40;;;;;;5038646;28;20616;-82
2023/06/25 02:35:34;;;;;;;3.40;3.10;;;22.50;53.30;;;;;;5073020;28;20161;-82
2023/06/25 02:38:00;;;;;;;3.40;3.10;;;22.50;53.30;;;;;;5055070;28;20165;-82
2023/06/25 02:40:27;;;;;;;4.40;3.58;;;22.50;53.30;;;;;;5055220;28;20607;-82
2023/06/25 02:42:54;;;;;;;3.17;2.88;;;22.50;53.40;;;;;;5055279;28;20146;-82
2023/06/25 02:45:20;;;;;;;3.45;3.15;;;22.50;53.40;;;;;;5054975;28;20496;-82
2023/06/25 02:47:46;;;;;;;3.33;3.03;;;22.50;53.40;;;;;;5055123;28;20158;-82
2023/06/25 02:50:12;;;;;;;3.33;3.03;;;22.60;53.50;;;;;;5051589;28;20248;-82
2023/06/25 02:52:37;;;;;;;3.70;3.30;;;22.50;53.50;;;;;;5035635;28;20170;-82
2023/06/25 02:55:04;;;;;;;3.75;3.40;;;22.40;53.50;;;;;;5035714;28;20194;-82
2023/06/25 02:57:30;;;;;;;3.85;3.30;;;22.50;53.60;;;;;;5034734;28;20166;-82
2023/06/25 02:59:56;;;;;;;3.40;3.10;;;22.50;53.60;;;;;;5051319;28;20201;-82
2023/06/25 03:02:22;;;;;;;3.30;3.00;;;22.50;53.50;;;;;;5052837;28;20159;-82
2023/06/25 03:04:48;;;;;;;3.90;3.40;;;22.50;53.40;;;;;;5034882;28;20158;-82
2023/06/25 03:07:14;;;;;;;3.30;3.00;;;22.60;53.60;;;;;;5035024;28;20636;-82
2023/06/25 03:09:40;;;;;;;3.88;3.47;;;22.50;53.50;;;;;;5034889;28;20174;-82
2023/06/25 03:12:07;;;;;;;3.65;3.35;;;22.50;53.60;;;;;;5051729;28;20158;-82
2023/06/25 03:14:33;;;;;;;3.42;3.13;;;22.50;53.60;;;;;;5051116;28;20167;-82
2023/06/25 03:17:00;;;;;;;3.47;3.17;;;22.50;53.60;;;;;;5052548;28;20159;-82
2023/06/25 03:19:25;;;;;;;3.55;3.25;;;22.50;53.60;;;;;;5052733;28;20186;-82
2023/06/25 03:21:51;;;;;;;4.00;3.60;;;22.50;53.60;;;;;;5052602;28;20170;-82
2023/06/25 03:24:17;;;;;;;3.80;3.40;;;22.50;53.60;;;;;;5051402;28;20666;-82
2023/06/25 03:26:43;;;;;;;3.30;3.00;;;22.50;53.60;;;;;;5051397;28;20605;-82
2023/06/25 03:29:09;;;;;;;3.60;3.15;;;22.50;53.60;;;;;;5051202;28;20605;-82
2023/06/25 03:31:35;;;;;;;3.10;2.80;;;22.50;53.60;;;;;;5051269;28;20221;-82
2023/06/25 03:34:01;;;;;;;3.55;3.25;;;22.50;53.60;;;;;;5035992;28;20166;-82
2023/06/25 03:36:27;;;;;;;3.80;3.40;;;22.50;53.50;;;;;;5038043;28;20198;-82
2023/06/25 03:38:53;;;;;;;3.40;3.10;;;22.50;53.50;;;;;;5056260;28;20249;-82
2023/06/25 03:41:19;;;;;;;3.63;3.25;;;22.60;53.50;;;;;;5056053;28;20154;-83
2023/06/25 03:43:45;;;;;;;3.80;3.40;;;22.60;53.40;;;;;;5038317;28;20166;-83
2023/06/25 03:46:10;;;;;;;4.13;3.25;;;22.60;53.60;;;;;;5055147;28;20624;-82
2023/06/25 03:48:37;;;;;;;3.63;3.33;;;22.60;53.50;;;;;;5037800;28;20218;-82
2023/06/25 03:51:03;;;;;;;3.92;3.53;;;22.60;53.50;;;;;;5021545;28;20223;-83
2023/06/25 03:53:29;;;;;;;3.33;3.03;;;22.60;53.40;;;;;;5038070;28;20181;-83
2023/06/25 03:55:55;;;;;;;3.65;3.30;;;22.60;53.30;;;;;;5054308;28;20531;-82
2023/06/25 03:58:22;;;;;;;3.70;3.40;;;22.70;53.30;;;;;;5056395;28;20182;-83
2023/06/25 04:00:48;;;;;;;3.45;3.15;;;22.70;53.30;;;;;;5054372;28;20213;-83
2023/06/25 04:03:14;;;;;;;3.58;3.28;;;22.70;53.40;;;;;;5054335;28;20150;-82
2023/06/25 04:05:40;;;;;;;3.40;3.10;;;22.60;53.30;;;;;;5055646;28;20161;-83
2023/06/25 04:08:06;;;;;;;3.88;3.55;;;22.60;53.30;;;;;;5055692;28;20185;-83
2023/06/25 04:10:32;;;;;;;3.78;3.30;;;22.70;53.30;;;;;;5037985;28;20193;-83
2023/06/25 04:12:58;;;;;;;3.60;3.30;;;22.70;53.30;;;;;;5054346;28;20192;-83
2023/06/25 04:15:24;;;;;;;3.38;3.08;;;22.70;53.20;;;;;;5054433;28;20162;-83
2023/06/25 04:17:50;;;;;;;3.70;3.30;;;22.70;53.20;;;;;;5038027;28;20684;-83
2023/06/25 04:20:16;;;;;;;3.80;3.28;;;22.70;53.30;;;;;;5054082;28;20552;-83
2023/06/25 04:22:42;;;;;;;3.58;3.28;;;22.80;53.20;;;;;;5054529;28;20162;-83
2023/06/25 04:25:08;;;;;;;3.50;3.17;;;22.70;53.20;;;;;;5037649;28;20154;-82
2023/06/25 04:27:34;;;;;;;3.67;3.33;;;22.70;53.20;;;;;;5037349;28;20211;-83
2023/06/25 04:30:00;;;;;;;4.25;3.85;;;22.80;53.20;;;;;;5055259;28;20245;-83
2023/06/25 04:32:26;;;;;;;3.78;3.40;;;22.70;53.20;;;;;;5055343;28;20173;-83
2023/06/25 04:34:52;;;;;;;3.58;3.28;;;22.80;53.90;;;;;;5037371;28;20513;-83
2023/06/25 04:37:18;;;;;;;3.42;3.10;;;22.80;53.10;;;;;;5037157;28;20172;-83
2023/06/25 04:39:44;;;;;;;4.55;3.53;;;22.90;53.20;;;;;;5055071;28;20648;-83
2023/06/25 04:42:10;;;;;;;3.55;3.25;;;22.90;53.00;;;;;;5037186;28;20528;-83
2023/06/25 04:44:36;;;;;;;3.40;3.10;;;22.90;53.00;;;;;;5053381;28;20208;-83
2023/06/25 04:47:02;;;;;;;3.40;3.10;;;22.90;52.90;;;;;;5054298;28;20171;-82
2023/06/25 04:49:27;;;;;;;3.20;2.90;;;22.90;53.10;;;;;;5054589;28;20221;-83
2023/06/25 04:51:53;;;;;;;3.42;3.13;;;23.00;52.90;;;;;;5053870;28;20645;-83
2023/06/25 04:54:19;;;;;;;3.42;3.13;;;22.90;52.80;;;;;;5054944;28;20196;-83
2023/06/25 04:56:45;;;;;;;3.22;2.92;;;22.90;52.90;;;;;;5055316;28;20190;-83
2023/06/25 04:59:11;;;;;;;3.55;3.22;;;22.90;52.80;;;;;;5053608;28;20240;-83
2023/06/25 05:01:37;;;;;;;3.38;3.08;;;23.00;52.90;;;;;;5055493;28;20457;-83
2023/06/25 05:04:03;;;;;;;3.60;3.30;;;22.90;52.90;;;;;;5053680;28;20608;-83
2023/06/25 05:06:29;;;;;;;3.70;3.40;;;23.00;52.80;;;;;;5054733;28;20186;-83
2023/06/25 05:08:56;;;;;;;3.42;3.08;;;23.00;52.80;;;;;;5054922;28;20173;-83
2023/06/25 05:11:26;;;;;;;3.65;3.30;;;22.90;52.80;;;;;;5036877;28;20541;-83
2023/06/25 05:13:52;;;;;;;3.42;3.13;;;22.90;52.90;;;;;;5019903;28;20645;-83
2023/06/25 05:16:17;;;;;;;3.50;3.20;;;23.00;52.80;;;;;;5053464;28;20158;-83
2023/06/25 05:18:43;;;;;;;3.53;3.22;;;23.00;52.80;;;;;;5036948;28;20158;-83
2023/06/25 05:21:09;;;;;;;3.30;3.00;;;23.00;52.80;;;;;;5054534;28;20526;-83
2023/06/25 05:23:43;;;;;;;3.42;3.13;;;23.00;52.80;;;;;;5054596;28;20524;-83
2023/06/25 05:26:13;;;;;;;3.30;3.00;;;22.90;52.70;;;;;;5052928;28;20524;-83
2023/06/25 05:28:39;;;;;;;4.00;3.60;;;23.00;52.70;;;;;;5035944;28;20514;-83
2023/06/25 05:31:07;;;;;;;3.50;3.20;;;23.00;52.70;;;;;;5054457;28;20165;-83
2023/06/25 05:33:33;;;;;;;3.78;3.38;;;23.00;52.70;;;;;;5020366;28;20629;-83
2023/06/25 05:35:59;;;;;;;3.53;3.17;;;23.00;52.80;;;;;;5053136;28;20162;-83
2023/06/25 05:38:25;;;;;;;3.50;3.20;;;23.00;52.60;;;;;;5054268;28;20664;-84
2023/06/25 05:40:51;;;;;;;3.40;3.10;;;23.00;52.60;;;;;;5036382;28;20214;-83
2023/06/25 05:43:17;;;;;;;3.35;3.05;;;23.00;52.70;;;;;;5053065;28;20604;-83
2023/06/25 05:45:43;;;;;;;3.55;3.25;;;23.10;52.50;;;;;;5037098;28;20248;-83
2023/06/25 05:48:08;;;;;;;3.65;3.28;;;23.20;52.40;;;;;;5036915;28;20158;-83
2023/06/25 05:50:34;;;;;;;3.50;3.20;;;23.20;52.30;;;;;;5052780;28;20676;-83
2023/06/25 05:53:00;;;;;;;3.35;3.05;;;23.20;52.40;;;;;;5052816;28;20219;-83
2023/06/25 05:55:27;;;;;;;3.28;2.97;;;23.10;52.50;;;;;;5053286;28;20580;-83
2023/06/25 05:57:53;;;;;;;3.40;3.10;;;23.20;52.40;;;;;;5036060;28;20268;-83
2023/06/25 06:00:23;;;;;;;3.55;3.05;;;23.10;52.50;;;;;;5053776;28;20327;-83
2023/06/25 06:02:49;;;;;;;3.20;2.90;;;23.20;52.30;;;;;;5019553;28;20182;-83
2023/06/25 06:05:15;;;;;;;3.53;3.22;;;23.20;52.30;;;;;;5036083;28;20257;-83
2023/06/25 06:07:41;;;;;;;3.90;3.35;;;23.20;52.30;;;;;;5036490;28;20763;-83
2023/06/25 06:10:07;;;;;;;3.40;3.10;;;23.20;52.30;;;;;;5053015;28;20185;-83
2023/06/25 06:12:33;;;;;;;3.50;3.20;;;23.30;52.30;;;;;;5035945;28;20172;-83
2023/06/25 06:14:59;;;;;;;3.65;3.35;;;23.20;52.30;;;;;;5052669;28;20162;-84
2023/06/25 06:17:25;;;;;;;3.53;3.22;;;23.20;52.30;;;;;;5052565;28;20599;-83
2023/06/25 06:19:51;;;;;;;3.40;3.05;;;23.20;52.30;;;;;;5053683;28;20652;-83
2023/06/25 06:22:17;;;;;;;3.30;3.00;;;23.40;52.00;;;;;;5052516;28;20629;-83
2023/06/25 06:24:43;;;;;;;3.53;3.20;;;23.40;51.90;;;;;;5052554;28;20158;-83
2023/06/25 06:27:09;;;;;;;3.60;3.30;;;23.40;52.00;;;;;;5053970;28;20186;-83
2023/06/25 06:29:35;;;;;;;3.50;3.10;;;23.30;52.10;;;;;;5035745;28;20660;-84
2023/06/25 06:32:01;;;;;;;3.40;3.10;;;23.40;52.00;;;;;;5053707;28;20201;-83
2023/06/25 06:34:27;;;;;;;3.65;3.35;;;23.30;52.20;;;;;;5052444;28;20169;-83
2023/06/25 06:36:53;;;;;;;3.67;3.38;;;23.30;52.10;;;;;;5052171;28;20229;-83
2023/06/25 06:39:18;;;;;;;3.80;3.50;;;23.20;52.30;;;;;;5053631;28;20188;-83
2023/06/25 06:41:44;;;;;;;3.22;2.92;;;23.00;52.80;;;;;;5052232;28;20624;-83
2023/06/25 06:44:18;;;;;;;3.63;3.33;;;22.90;53.40;;;;;;5053308;28;20154;-83
2023/06/25 06:46:44;;;;;;;3.20;2.90;;;22.90;53.50;;;;;;5052278;28;20185;-83
2023/06/25 06:49:10;;;;;;;3.35;3.05;;;22.80;53.60;;;;;;5052208;28;20218;-83
2023/06/25 06:51:36;;;;;;;3.80;3.22;;;22.80;53.50;;;;;;5019140;28;20498;-83
2023/06/25 06:54:02;;;;;;;3.40;3.10;;;22.80;53.40;;;;;;5019687;28;20169;-83
2023/06/25 06:56:28;;;;;;;3.67;3.35;;;22.80;53.20;;;;;;5051928;28;20203;-83
2023/06/25 06:58:54;;;;;;;2.90;2.70;;;22.90;52.90;;;;;;5053471;28;20564;-83
2023/06/25 07:01:20;;;;;;;3.42;3.13;;;22.80;52.90;;;;;;5035861;28;20682;-83
2023/06/25 07:03:46;;;;;;;2.90;2.70;;;22.80;52.80;;;;;;5052407;28;20245;-83
2023/06/25 07:06:16;;;;;;;3.28;2.97;;;22.90;52.60;;;;;;5036258;28;20180;-83
2023/06/25 07:08:42;;;;;;;3.08;2.78;;;22.90;52.80;;;;;;5019276;28;20228;-84
2023/06/25 07:11:13;;;;;;;3.30;3.00;;;22.90;52.50;;;;;;5056252;28;20170;-83
2023/06/25 07:13:39;;;;;;;2.88;2.67;;;22.90;52.60;;;;;;5022888;28;20640;-83
2023/06/25 07:16:05;;;;;;;3.40;3.10;;;22.90;52.60;;;;;;5039174;28;20201;-82
2023/06/25 07:18:30;;;;;;;2.70;2.50;;;22.90;52.50;;;;;;5039318;28;20201;-83
2023/06/25 07:20:56;;;;;;;3.10;2.80;;;22.90;52.30;;;;;;5056229;28;20186;-83
2023/06/25 07:23:22;;;;;;;3.05;2.78;;;22.90;52.30;;;;;;5057310;28;20639;-83
2023/06/25 07:25:48;;;;;;;2.70;2.50;;;22.90;52.30;;;;;;5057086;28;20627;-83
2023/06/25 07:28:14;;;;;;;3.05;2.75;;;22.90;52.10;;;;;;5055676;28;20158;-83
2023/06/25 07:30:40;;;;;;;3.00;2.70;;;23.00;51.90;;;;;;5039550;28;20186;-83
2023/06/25 07:33:06;;;;;;;3.17;2.88;;;22.90;52.00;;;;;;5039292;28;20498;-83
2023/06/25 07:35:32;;;;;;;3.13;2.83;;;22.80;52.00;;;;;;5039350;28;20170;-83
2023/06/25 07:37:58;;;;;;;3.35;3.05;;;22.90;51.80;;;;;;5022428;28;20154;-83
2023/06/25 07:40:24;;;;;;;2.70;2.50;;;22.90;51.70;;;;;;5038772;28;20189;-83
2023/06/25 07:42:50;;;;;;;3.33;2.92;;;22.90;51.40;;;;;;5056544;28;20161;-82
2023/06/25 07:45:16;;;;;;;2.70;2.50;;;23.00;51.00;;;;;;5038675;28;20169;-83
2023/06/25 07:47:42;;;;;;;3.25;2.95;;;23.00;51.00;;;;;;5056824;28;20233;-82
2023/06/25 07:50:08;;;;;;;2.67;2.47;;;22.90;51.30;;;;;;5055253;28;20220;-83
2023/06/25 07:52:34;;;;;;;2.78;2.55;;;22.90;51.10;;;;;;5055530;28;20166;-83
2023/06/25 07:55:00;;;;;;;3.22;2.92;;;23.00;51.00;;;;;;5056546;28;20158;-83
2023/06/25 07:57:26;;;;;;;2.78;2.50;;;22.90;50.60;;;;;;5055247;28;20193;-83
2023/06/25 07:59:55;;;;;;;3.08;2.78;;;23.00;50.60;;;;;;5038454;28;20556;-83
2023/06/25 08:02:21;;;;;;;2.60;2.40;;;23.10;50.50;;;;;;5004974;28;20178;-83
2023/06/25 08:04:48;;;;;;;3.33;2.60;;;23.00;50.40;;;;;;5038471;28;20169;-83
2023/06/25 08:07:14;;;;;;;2.67;2.45;;;23.00;50.40;;;;;;5056143;28;20188;-83
2023/06/25 08:09:41;;;;;;;3.03;2.72;;;23.00;50.20;;;;;;5054877;28;20241;-84
2023/06/25 08:12:07;;;;;;;2.90;2.70;;;23.00;50.40;;;;;;5055113;28;20154;-83
2023/06/25 08:14:33;;;;;;;2.83;2.60;;;23.00;50.30;;;;;;5056194;28;20175;-83
2023/06/25 08:16:59;;;;;;;3.15;2.85;;;23.10;50.10;;;;;;5038557;28;20162;-83
2023/06/25 08:19:25;;;;;;;2.70;2.50;;;23.10;49.80;;;;;;5022292;28;20631;-83
2023/06/25 08:21:51;;;;;;;3.75;2.80;;;23.10;50.20;;;;;;5056039;28;20186;-83
2023/06/25 08:24:17;;;;;;;2.80;2.50;;;23.00;50.10;;;;;;5055495;28;20517;-83
2023/06/25 08:26:43;;;;;;;3.53;2.80;;;23.00;50.00;;;;;;5055070;28;20178;-83
2023/06/25 08:29:09;;;;;;;2.70;2.50;;;23.00;50.00;;;;;;5038728;28;20170;-83
2023/06/25 08:31:35;;;;;;;3.25;2.95;;;23.00;50.00;;;;;;5056493;28;20162;-82
2023/06/25 08:34:01;;;;;;;2.90;2.63;;;23.00;49.90;;;;;;5038249;28;20166;-83
2023/06/25 08:36:27;;;;;;;2.50;2.30;;;23.00;50.00;;;;;;5038641;28;20181;-83
2023/06/25 08:38:53;;;;;;;2.83;2.40;;;23.00;49.70;;;;;;5054992;28;20158;-83
2023/06/25 08:41:19;;;;;;;2.65;2.42;;;23.00;49.60;;;;;;5054673;28;20154;-83
2023/06/25 08:43:45;;;;;;;2.63;2.42;;;23.00;49.70;;;;;;5037848;28;20571;-83
2023/06/25 08:46:11;;;;;;;2.90;2.70;;;23.00;49.70;;;;;;5055915;28;20147;-83
2023/06/25 08:48:38;;;;;;;2.60;2.40;;;23.10;49.60;;;;;;5059487;28;20220;-83
2023/06/25 08:51:08;;;;;;;2.58;2.38;;;23.20;49.40;;;;;;5057941;28;20154;-83
2023/06/25 08:53:34;;;;;;;3.05;2.67;;;23.10;49.20;;;;;;5057769;28;20157;-84
2023/06/25 08:56:00;;;;;;;2.60;2.40;;;23.10;49.20;;;;;;5057672;28;20603;-83
2023/06/25 08:58:26;;;;;;;3.17;2.60;;;23.10;49.20;;;;;;5040804;28;20254;-83
2023/06/25 09:00:52;;;;;;;2.75;2.55;;;23.10;49.10;;;;;;5075354;28;20196;-83
2023/06/25 09:03:18;;;;;;;2.60;2.30;;;23.10;49.10;;;;;;5075075;28;20627;-83
2023/06/25 09:05:53;;;;;;;2.83;2.58;;;23.20;48.90;;;;;;5075182;28;20731;-83
2023/06/25 09:08:23;;;;;;;2.60;2.40;;;23.20;48.60;;;;;;5040345;28;20161;-82
2023/06/25 09:10:51;;;;;;;2.83;2.53;;;23.20;48.60;;;;;;5075041;28;20529;-83
2023/06/25 09:13:26;;;;;;;2.90;2.60;;;23.20;48.60;;;;;;5074629;28;20620;-83
2023/06/25 09:15:53;;;;;;;2.88;2.58;;;23.20;48.70;;;;;;5040175;28;20173;-84
2023/06/25 09:18:21;;;;;;;2.70;2.50;;;23.20;48.60;;;;;;5056829;28;20619;-83
2023/06/25 09:20:48;;;;;;;2.65;2.42;;;23.20;48.40;;;;;;5040146;28;20628;-84
2023/06/25 09:23:19;;;;;;;3.55;2.30;;;23.20;48.30;;;;;;5039948;28;20158;-84
2023/06/25 09:25:45;;;;;;;2.50;2.30;;;23.20;48.50;;;;;;5056595;28;20236;-83
2023/06/25 09:28:11;;;;;;;2.80;2.55;;;23.20;48.30;;;;;;5074671;28;20182;-83
2023/06/25 09:30:38;;;;;;;2.40;2.20;;;23.20;48.20;;;;;;5074419;28;20184;-83
2023/06/25 09:33:05;;;;;;;2.42;2.22;;;23.30;48.00;;;;;;5056127;28;20154;-83
2023/06/25 09:35:36;;;;;;;2.78;2.40;;;23.40;47.70;;;;;;5056925;28;20326;-83
2023/06/25 09:38:02;;;;;;;2.30;2.10;;;23.40;47.70;;;;;;5006690;28;20239;-83
2023/06/25 09:40:28;;;;;;;3.08;2.60;;;23.30;47.60;;;;;;5056537;28;20540;-84
2023/06/25 09:42:55;;;;;;;2.40;2.20;;;23.40;48.00;;;;;;5074468;28;20215;-83
2023/06/25 09:45:22;;;;;;;2.67;2.33;;;23.40;47.30;;;;;;5039599;28;20161;-83
2023/06/25 09:47:49;;;;;;;4.03;2.30;;;23.40;47.50;;;;;;5074110;28;20158;-83
2023/06/25 09:50:17;;;;;;;2.60;2.40;;;23.30;47.50;;;;;;5052787;28;20222;-84
2023/06/25 09:52:50;;;;;;;2.22;2.03;;;23.30;47.50;;;;;;5053799;28;20211;-83
2023/06/25 09:55:17;;;;;;;2.85;2.00;;;23.20;47.30;;;;;;5035872;28;20644;-83
2023/06/25 09:57:42;;;;;;;2.15;1.80;;;23.40;47.10;;;;;;5053678;28;20276;-82
2023/06/25 10:00:09;;;;;;;2.40;2.20;;;23.30;47.10;;;;;;5053589;28;20272;-82
2023/06/25 10:02:35;;;;;;;2.72;2.10;;;23.40;47.10;;;;;;5035539;28;20537;-82
2023/06/25 10:05:01;;;;;;;2.30;2.10;;;23.40;47.20;;;;;;5053555;28;20158;-82
2023/06/25 10:07:27;;;;;;;2.80;1.90;;;23.40;47.00;;;;;;5052600;28;20170;-82
2023/06/25 10:09:53;;;;;;;2.72;2.10;;;23.40;47.00;;;;;;5035823;28;20169;-82
2023/06/25 10:12:19;;;;;;;3.88;2.25;;;23.40;46.90;;;;;;5052672;28;20201;-82
2023/06/25 10:14:46;;;;;;;2.90;2.00;;;23.40;47.00;;;;;;5035707;28;20251;-82
2023/06/25 10:17:13;;;;;;;3.92;1.92;;;23.40;46.90;;;;;;5052234;28;20520;-82
2023/06/25 10:19:39;;;;;;;2.08;1.88;;;23.40;46.90;;;;;;5035497;28;20247;-82
2023/06/25 10:22:10;;;;;;;3.42;2.08;;;23.40;46.90;;;;;;5053740;28;20151;-82
2023/06/25 10:24:41;;;;;;;2.00;1.80;;;23.40;46.90;;;;;;5036687;28;20157;-82
2023/06/25 10:27:24;;;;;;;3.13;2.10;;;23.40;47.00;;;;;;5052524;28;20225;-82
2023/06/25 10:29:51;;;;;;;3.35;1.90;;;23.40;46.90;;;;;;5053777;28;20162;-82
2023/06/25 10:32:20;;;;;;;2.15;1.95;;;23.40;46.90;;;;;;5052714;28;20168;-82
2023/06/25 10:35:02;;;;;;;2.10;1.90;;;23.40;46.90;;;;;;5052128;28;20155;-82
2023/06/25 10:37:30;;;;;;;2.65;2.00;;;23.40;46.60;;;;;;5019688;28;20235;-82
2023/06/25 10:40:11;;;;;;;1.92;1.75;;;23.50;46.60;;;;;;5052180;28;20181;-82
2023/06/25 10:42:37;;;;;;;3.15;2.00;;;23.50;46.50;;;;;;5053619;28;20169;-82
2023/06/25 10:45:04;;;;;;;2.10;1.90;;;23.50;46.30;;;;;;5056648;28;20150;-83
2023/06/25 10:47:30;;;;;;;3.08;2.00;;;23.50;46.20;;;;;;5056434;28;20166;-82
2023/06/25 10:49:55;;;;;;;3.35;1.98;;;23.50;46.40;;;;;;5072004;28;20748;-82
2023/06/25 10:52:21;;;;;;;2.08;1.88;;;23.50;46.40;;;;;;5059663;28;20173;-83
2023/06/25 10:54:55;;;;;;;2.33;1.88;;;23.50;46.20;;;;;;5042927;28;20176;-83
2023/06/25 10:57:21;;;;;;;3.55;2.10;;;23.50;46.30;;;;;;5013274;28;20501;-81
2023/06/25 10:59:48;;;;;;;3.10;1.95;;;23.50;46.30;;;;;;5061283;28;20702;-82
2023/06/25 11:02:17;;;;;;;2.05;1.85;;;23.40;46.20;;;;;;5044575;28;20176;-82
2023/06/25 11:04:51;;;;;;;3.78;1.98;;;23.50;46.30;;;;;;5045745;28;20652;-83
2023/06/25 11:07:19;;;;;;;2.72;2.10;;;23.50;46.10;;;;;;5061783;28;20569;-83
2023/06/25 11:09:50;;;;;;;7.32;2.53;;;23.50;46.80;;;;;;5061118;28;20165;-82
2023/06/25 11:12:17;;;;;;;6.95;2.33;;;23.60;46.00;;;;;;5078583;28;20150;-82
2023/06/25 11:14:44;;;;;;;5.53;2.30;;;23.60;46.00;;;;;;5043542;28;20180;-83
2023/06/25 11:17:13;;;;;;;4.43;2.35;;;23.60;45.80;;;;;;5060387;28;20264;-83
2023/06/25 11:19:39;;;;;;;4.63;2.10;;;23.50;45.70;;;;;;5043788;28;20562;-83
2023/06/25 11:22:07;;;;;;;6.15;2.03;;;23.50;45.50;;;;;;5059118;28;20169;-82
2023/06/25 11:24:36;;;;;;;5.82;2.50;;;23.60;45.60;;;;;;5059052;28;20157;-82
2023/06/25 11:27:02;;;;;;;6.40;2.42;;;23.50;45.60;;;;;;5060503;28;20150;-83
2023/06/25 11:29:37;;;;;;;6.72;2.22;;;23.60;45.50;;;;;;5059297;28;20628;-83
2023/06/25 11:32:08;;;;;;;6.15;2.03;;;23.50;45.50;;;;;;5041832;28;20172;-82
2023/06/25 11:34:35;;;;;;;6.88;2.15;;;23.60;45.30;;;;;;5059228;28;20642;-82
2023/06/25 11:37:13;;;;;;;3.25;1.90;;;23.60;45.40;;;;;;5058236;28;20150;-82
2023/06/25 11:39:48;;;;;;;7.15;2.45;;;23.60;45.40;;;;;;5041893;28;20554;-83
2023/06/25 11:42:22;;;;;;;5.97;2.33;;;23.60;45.30;;;;;;5058321;28;20157;-82
2023/06/25 11:45:05;;;;;;;7.47;2.17;;;23.60;45.20;;;;;;5058425;28;20242;-83
2023/06/25 11:47:31;;;;;;;6.82;2.40;;;23.60;45.20;;;;;;5058228;28;20170;-82
2023/06/25 11:49:57;;;;;;;5.28;2.30;;;23.60;45.10;;;;;;5054802;28;20249;-82
2023/06/25 11:52:23;;;;;;;4.15;2.03;;;23.70;45.10;;;;;;5054954;28;20632;-83
2023/06/25 11:54:49;;;;;;;6.65;2.40;;;23.60;45.00;;;;;;5054278;28;20557;-83
2023/06/25 11:57:16;;;;;;;3.20;1.90;;;23.60;45.00;;;;;;5054800;28;20204;-83
2023/06/25 11:59:43;;;;;;;5.10;2.22;;;23.70;44.80;;;;;;5056360;28;20265;-82
2023/06/25 12:02:09;;;;;;;3.67;1.90;;;23.60;44.70;;;;;;5055564;28;20158;-82
2023/06/25 12:04:35;;;;;;;4.85;2.28;;;23.60;44.50;;;;;;5056020;28;20151;-83
2023/06/25 12:07:01;;;;;;;4.15;2.10;;;23.70;44.50;;;;;;5056116;28;20151;-83
2023/06/25 12:09:27;;;;;;;5.50;2.28;;;23.70;44.40;;;;;;5057872;28;20173;-82
2023/06/25 12:11:54;;;;;;;7.63;2.60;;;23.70;44.40;;;;;;5056124;28;20174;-82
2023/06/25 12:14:20;;;;;;;4.90;2.28;;;23.70;44.60;;;;;;5054644;28;20697;-82
2023/06/25 12:16:46;;;;;;;4.22;1.92;;;23.60;44.60;;;;;;5037542;28;20174;-83
2023/06/25 12:19:15;;;;;;;4.03;1.95;;;23.60;44.30;;;;;;5021428;28;20174;-83
2023/06/25 12:21:41;;;;;;;7.47;2.22;;;23.70;44.20;;;;;;5004086;28;20174;-83
2023/06/25 12:24:07;;;;;;;5.93;2.30;;;23.70;43.90;;;;;;5054256;28;20625;-82
2023/06/25 12:26:33;;;;;;;4.22;2.08;;;23.70;43.90;;;;;;5054365;28;20181;-83
2023/06/25 12:29:01;;;;;;;5.50;1.85;;;23.70;44.00;;;;;;5054225;28;20158;-82
2023/06/25 12:31:27;;;;;;;5.35;2.13;;;23.70;44.10;;;;;;5037575;28;20235;-83
2023/06/25 12:33:53;;;;;;;4.85;2.20;;;23.70;44.00;;;;;;5053993;28;20174;-82
2023/06/25 12:36:19;;;;;;;4.18;2.15;;;23.70;44.20;;;;;;5053740;28;20728;-82
2023/06/25 12:38:45;;;;;;;4.90;1.83;;;23.70;44.10;;;;;;5055016;28;20237;-83
2023/06/25 12:41:10;;;;;;;6.88;2.30;;;23.70;44.00;;;;;;5037231;28;20273;-82
2023/06/25 12:43:36;;;;;;;5.60;1.98;;;23.70;44.50;;;;;;5037450;28;20265;-82
2023/06/25 12:46:04;;;;;;;3.20;1.80;;;23.80;43.90;;;;;;5053334;28;20174;-82